createdAt,value
2023-01-13T00:05:45.225Z,5.60
2023-01-13T00:24:24.122Z,5.70
2023-01-13T00:43:05.439Z,6.20
2023-01-13T01:01:43.770Z,6.60
2023-01-13T01:39:02.770Z,3.80
2023-01-13T01:57:42.568Z,4.80
2023-01-13T02:16:23.043Z,4.00
2023-01-13T02:53:39.047Z,4.90
2023-01-13T03:12:17.252Z,5.00
2023-01-13T03:31:01.254Z,4.30
2023-01-13T03:49:37.723Z,5.50
2023-01-13T04:08:17.083Z,5.60
2023-01-13T04:26:57.036Z,5.70
2023-01-13T04:45:37.723Z,7.00
2023-01-13T05:04:15.415Z,3.50
2023-01-13T05:22:52.947Z,5.60
2023-01-13T05:41:31.182Z,5.80
2023-01-13T06:00:12.215Z,4.70
2023-01-13T06:18:51.309Z,5.00
2023-01-13T13:28:16.524Z,2.80
2023-01-13T13:46:58.193Z,2.60
2023-01-13T14:05:35.187Z,2.80
2023-01-13T14:24:14.886Z,2.60
2023-01-13T15:20:11.400Z,3.30
2023-01-13T15:38:45.819Z,6.60
2023-01-13T15:57:21.433Z,5.30
2023-01-13T16:15:56.187Z,6.40
2023-01-13T16:34:30.686Z,4.10
2023-01-13T16:53:18.456Z,4.70
2023-01-13T17:11:46.494Z,4.70
2023-01-13T17:30:26.453Z,5.90
2023-01-13T17:49:03.034Z,7.60
2023-01-13T18:07:38.226Z,7.60
2023-01-13T18:26:16.933Z,5.80
2023-01-13T19:03:35.278Z,9.30
2023-01-13T19:22:13.807Z,8.40
2023-01-13T19:40:53.790Z,11.90
2023-01-13T20:18:09.404Z,9.20
2023-01-13T20:36:50.857Z,6.10
2023-01-13T20:55:28.381Z,6.90
2023-01-13T21:14:11.449Z,5.90
2023-01-13T21:32:49.968Z,8.60
2023-01-13T21:51:38.046Z,12.00
2023-01-13T22:10:07.605Z,9.80
2023-01-13T22:28:41.367Z,10.40
2023-01-13T22:47:18.753Z,4.90
2023-01-13T23:05:57.269Z,6.00
2023-01-13T23:24:37.770Z,4.80
2023-01-13T23:43:14.758Z,5.60
